createdAt,value
2018-12-06T00:02:01.069Z,21.75
2018-12-06T00:04:28.485Z,28.58
2018-12-06T00:06:56.498Z,21.60
2018-12-06T00:09:23.954Z,32.55
2018-12-06T00:11:51.363Z,25.00
2018-12-06T00:14:18.793Z,29.05
2018-12-06T00:16:46.207Z,21.45
2018-12-06T00:19:13.612Z,24.55
2018-12-06T00:21:41.026Z,23.73
2018-12-06T00:24:08.477Z,30.10
2018-12-06T00:26:35.883Z,21.83
2018-12-06T00:29:03.309Z,26.85
2018-12-06T00:31:30.757Z,25.62
2018-12-06T00:33:58.146Z,26.35
2018-12-06T00:36:25.561Z,25.67
2018-12-06T00:38:53.005Z,24.20
2018-12-06T00:41:20.409Z,19.40
2018-12-06T00:43:47.832Z,25.73
2018-12-06T00:46:15.243Z,16.25
2018-12-06T00:48:42.655Z,21.15
2018-12-06T00:51:10.060Z,18.40
2018-12-06T00:53:37.498Z,17.85
2018-12-06T00:56:04.915Z,20.02
2018-12-06T00:58:32.321Z,19.50
2018-12-06T01:00:59.737Z,19.75
2018-12-06T01:03:27.181Z,12.88
2018-12-06T01:05:54.643Z,19.67
2018-12-06T01:08:22.072Z,10.35
2018-12-06T01:10:49.467Z,7.15
2018-12-06T01:13:16.881Z,11.50
2018-12-06T01:15:44.323Z,14.85
2018-12-06T01:18:11.739Z,14.65
2018-12-06T01:20:39.132Z,12.27
2018-12-06T01:23:06.543Z,15.82
2018-12-06T01:25:33.950Z,12.15
2018-12-06T01:28:01.369Z,16.25
2018-12-06T01:30:28.784Z,17.15
2018-12-06T01:32:56.221Z,11.98
2018-12-06T01:35:23.636Z,18.20
2018-12-06T01:37:51.135Z,13.73
2018-12-06T01:40:18.563Z,10.43
2018-12-06T01:42:45.994Z,13.40
2018-12-06T01:45:13.403Z,10.55
2018-12-06T01:47:40.812Z,11.45
2018-12-06T01:50:08.350Z,7.47
2018-12-06T01:52:35.783Z,8.93
2018-12-06T01:55:04.043Z,6.68
2018-12-06T01:57:32.362Z,6.22
2018-12-06T01:59:59.770Z,5.55
2018-12-06T02:02:27.172Z,4.70
2018-12-06T02:04:54.576Z,7.57
2018-12-06T02:07:21.973Z,4.15
2018-12-06T02:09:49.397Z,5.47
2018-12-06T02:12:16.852Z,5.78
2018-12-06T02:14:44.263Z,4.20
2018-12-06T02:17:11.681Z,4.60
2018-12-06T02:19:39.737Z,3.58
2018-12-06T02:22:07.147Z,4.05
2018-12-06T02:24:34.557Z,3.70
2018-12-06T02:27:02.035Z,4.37
2018-12-06T02:29:29.447Z,4.85
2018-12-06T02:31:56.853Z,5.12
2018-12-06T02:34:24.278Z,6.75
2018-12-06T02:36:51.681Z,5.03
2018-12-06T02:39:19.089Z,5.47
2018-12-06T02:41:46.499Z,4.15
2018-12-06T02:44:14.618Z,5.87
2018-12-06T02:46:42.021Z,11.23
2018-12-06T02:49:09.572Z,4.87
2018-12-06T02:51:36.997Z,5.18
2018-12-06T02:54:04.415Z,6.97
2018-12-06T02:56:31.822Z,4.70
2018-12-06T02:58:59.229Z,7.07
2018-12-06T03:01:26.633Z,4.78
2018-12-06T03:03:54.122Z,6.53
2018-12-06T03:06:21.540Z,6.15
2018-12-06T03:08:48.965Z,5.15
2018-12-06T03:11:16.393Z,3.67
2018-12-06T03:13:43.840Z,6.05
2018-12-06T03:16:11.253Z,6.75
2018-12-06T03:18:38.687Z,7.28
2018-12-06T03:21:06.164Z,5.82
2018-12-06T03:23:33.626Z,11.12
2018-12-06T03:26:01.056Z,5.15
2018-12-06T03:28:28.456Z,4.45
2018-12-06T03:30:55.888Z,5.65
2018-12-06T03:33:23.313Z,4.07
2018-12-06T03:35:50.802Z,6.00
2018-12-06T03:38:18.216Z,4.95
2018-12-06T03:40:45.649Z,4.85
2018-12-06T03:43:13.086Z,6.43
2018-12-06T03:45:41.478Z,11.20
2018-12-06T03:48:08.905Z,10.55
2018-12-06T03:50:36.362Z,5.78
2018-12-06T03:53:03.769Z,4.87
2018-12-06T03:55:31.465Z,9.70
2018-12-06T03:57:58.876Z,6.97
2018-12-06T04:00:26.299Z,4.40
2018-12-06T04:02:53.933Z,5.40
2018-12-06T04:05:21.331Z,6.60
2018-12-06T04:07:48.780Z,5.30
2018-12-06T04:10:16.232Z,6.87
2018-12-06T04:12:43.703Z,8.27
2018-12-06T04:15:11.141Z,10.80
2018-12-06T04:17:38.591Z,5.97
2018-12-06T04:20:06.004Z,7.28
2018-12-06T04:22:33.423Z,9.57
2018-12-06T04:25:00.828Z,6.43
2018-12-06T04:27:28.229Z,6.15
2018-12-06T04:29:55.649Z,5.47
2018-12-06T04:32:23.315Z,5.47
2018-12-06T04:34:50.720Z,4.28
2018-12-06T04:37:18.157Z,9.90
2018-12-06T04:39:45.578Z,6.00
2018-12-06T04:42:13.500Z,6.85
2018-12-06T04:44:40.925Z,9.18
2018-12-06T04:47:08.339Z,4.50
2018-12-06T04:49:35.739Z,5.40
2018-12-06T04:52:03.213Z,10.50
2018-12-06T04:54:30.759Z,6.05
2018-12-06T04:56:58.156Z,4.62
2018-12-06T04:59:25.617Z,5.80
2018-12-06T05:01:53.016Z,7.22
2018-12-06T05:04:20.421Z,8.75
2018-12-06T05:06:47.839Z,10.98
2018-12-06T05:09:15.256Z,7.25
2018-12-06T05:11:42.733Z,9.30
2018-12-06T05:14:10.173Z,11.93
2018-12-06T05:16:37.625Z,11.00
2018-12-06T05:19:05.058Z,8.63
2018-12-06T05:21:32.459Z,7.30
2018-12-06T05:23:59.865Z,7.75
2018-12-06T05:26:27.296Z,6.28
2018-12-06T05:28:54.688Z,5.72
2018-12-06T05:31:22.115Z,11.07
2018-12-06T05:33:49.542Z,8.13
2018-12-06T05:36:16.997Z,4.50
2018-12-06T05:38:44.459Z,9.07
2018-12-06T05:41:12.790Z,5.20
2018-12-06T05:43:40.185Z,8.10
2018-12-06T05:46:07.724Z,5.85
2018-12-06T05:48:35.168Z,7.97
2018-12-06T05:51:02.569Z,8.32
2018-12-06T05:53:29.957Z,7.75
2018-12-06T05:55:57.355Z,5.78
2018-12-06T05:58:24.879Z,8.32
2018-12-06T06:00:52.287Z,9.45
2018-12-06T06:03:19.708Z,8.30
2018-12-06T06:05:47.111Z,5.53
2018-12-06T06:08:14.888Z,9.05
2018-12-06T06:10:42.304Z,6.93
2018-12-06T06:13:10.070Z,8.98
2018-12-06T06:15:37.543Z,6.18
2018-12-06T06:18:05.032Z,9.35
2018-12-06T06:20:32.433Z,8.40
2018-12-06T06:22:59.949Z,10.88
2018-12-06T06:25:27.423Z,12.25
2018-12-06T06:27:54.820Z,7.72
2018-12-06T06:30:22.243Z,11.98
2018-12-06T06:32:49.648Z,8.68
2018-12-06T06:35:17.055Z,10.82
2018-12-06T06:37:44.472Z,12.00
2018-12-06T06:40:11.895Z,6.72
2018-12-06T06:42:39.325Z,12.07
2018-12-06T06:45:06.805Z,8.23
2018-12-06T06:47:35.111Z,12.05
2018-12-06T06:52:36.430Z,10.27
2018-12-06T06:55:03.836Z,10.60
2018-12-06T06:57:31.285Z,9.43
2018-12-06T06:59:58.720Z,7.22
2018-12-06T07:02:26.127Z,9.93
2018-12-06T07:04:53.524Z,6.60
2018-12-06T07:07:20.937Z,8.23
2018-12-06T07:09:48.364Z,9.85
2018-12-06T07:12:15.797Z,8.25
2018-12-06T07:14:43.206Z,7.55
2018-12-06T07:17:10.642Z,10.50
2018-12-06T07:19:38.064Z,8.05
2018-12-06T07:22:06.045Z,8.48
2018-12-06T07:24:33.500Z,6.60
2018-12-06T07:27:00.996Z,11.60
2018-12-06T07:29:28.388Z,7.40
2018-12-06T07:31:55.828Z,8.57
2018-12-06T07:34:23.270Z,6.80
2018-12-06T07:36:50.684Z,8.20
2018-12-06T07:39:18.080Z,9.18
2018-12-06T07:41:45.519Z,7.65
2018-12-06T07:44:12.915Z,7.90
2018-12-06T07:46:40.354Z,7.12
2018-12-06T07:49:07.861Z,7.10
2018-12-06T07:51:35.361Z,8.15
2018-12-06T07:54:02.776Z,8.60
2018-12-06T07:56:30.384Z,8.80
2018-12-06T07:58:57.848Z,6.47
2018-12-06T08:01:26.031Z,10.23
2018-12-06T08:03:53.464Z,8.05
2018-12-06T08:06:21.952Z,7.20
2018-12-06T08:08:49.397Z,13.18
2018-12-06T08:11:16.802Z,7.65
2018-12-06T08:13:44.227Z,9.63
2018-12-06T08:16:11.654Z,10.00
2018-12-06T08:18:40.565Z,7.95
2018-12-06T08:21:08.565Z,8.27
2018-12-06T08:23:35.981Z,9.07
2018-12-06T08:26:03.389Z,7.15
2018-12-06T08:28:30.807Z,8.30
2018-12-06T08:30:58.363Z,16.65
2018-12-06T08:33:26.030Z,8.65
2018-12-06T08:35:54.403Z,6.40
2018-12-06T08:38:22.264Z,7.60
2018-12-06T08:40:49.849Z,6.15
2018-12-06T08:43:17.246Z,6.47
2018-12-06T08:45:44.689Z,8.05
2018-12-06T08:48:12.094Z,9.90
2018-12-06T08:50:39.500Z,5.22
2018-12-06T08:53:11.844Z,7.00
2018-12-06T08:55:39.283Z,6.40
2018-12-06T08:58:06.917Z,6.65
2018-12-06T09:00:34.409Z,7.75
2018-12-06T09:03:01.829Z,8.90
2018-12-06T09:05:29.224Z,7.87
2018-12-06T09:07:56.656Z,9.18
2018-12-06T09:10:24.050Z,6.68
2018-12-06T09:12:51.486Z,4.12
2018-12-06T09:15:18.937Z,5.57
2018-12-06T09:17:46.370Z,5.47
2018-12-06T09:20:13.805Z,12.75
2018-12-06T09:22:41.216Z,4.93
2018-12-06T09:25:08.612Z,6.53
2018-12-06T09:27:36.033Z,5.62
2018-12-06T09:30:03.902Z,8.38
2018-12-06T09:32:31.299Z,7.25
2018-12-06T09:34:58.698Z,7.43
2018-12-06T09:37:26.152Z,6.65
2018-12-06T09:39:56.253Z,8.60
2018-12-06T09:42:23.641Z,5.78
2018-12-06T09:44:51.055Z,10.75
2018-12-06T09:47:18.544Z,5.65
2018-12-06T09:49:45.941Z,5.87
2018-12-06T09:52:13.376Z,5.57
2018-12-06T09:54:40.853Z,6.03
2018-12-06T09:57:08.256Z,4.82
2018-12-06T09:59:35.893Z,4.90
2018-12-06T10:02:03.373Z,9.98
2018-12-06T10:04:30.803Z,4.00
2018-12-06T10:06:58.211Z,6.45
2018-12-06T10:09:25.631Z,8.20
2018-12-06T10:11:53.197Z,5.47
2018-12-06T10:14:20.689Z,5.12
2018-12-06T10:16:48.133Z,8.13
2018-12-06T10:19:15.533Z,4.32
2018-12-06T10:21:43.986Z,4.55
2018-12-06T10:24:11.403Z,4.32
2018-12-06T10:26:38.827Z,4.53
2018-12-06T10:29:06.600Z,5.37
2018-12-06T10:31:34.029Z,4.72
2018-12-06T10:34:01.468Z,6.93
2018-12-06T10:36:29.483Z,6.43
2018-12-06T10:38:56.901Z,5.32
2018-12-06T10:41:24.356Z,8.10
2018-12-06T10:43:51.758Z,4.82
2018-12-06T10:46:19.167Z,5.78
2018-12-06T10:48:47.456Z,4.40
2018-12-06T10:51:26.727Z,4.05
2018-12-06T10:53:54.184Z,3.75
2018-12-06T10:56:21.684Z,20.55
2018-12-06T10:58:50.059Z,3.45
2018-12-06T11:01:17.464Z,5.43
2018-12-06T11:03:50.542Z,3.33
2018-12-06T11:06:18.009Z,4.40
2018-12-06T11:08:45.461Z,3.97
2018-12-06T11:11:13.233Z,4.15
2018-12-06T11:13:41.436Z,3.25
2018-12-06T11:16:08.917Z,3.78
2018-12-06T11:18:36.368Z,4.20
2018-12-06T11:21:03.938Z,6.78
2018-12-06T11:23:31.351Z,5.87
2018-12-06T11:25:58.782Z,4.30
2018-12-06T11:28:26.277Z,4.30
2018-12-06T11:30:54.713Z,6.35
2018-12-06T11:33:22.181Z,3.78
2018-12-06T11:35:50.856Z,9.40
2018-12-06T11:38:18.286Z,3.58
2018-12-06T11:40:45.791Z,3.70
2018-12-06T11:43:13.227Z,6.37
2018-12-06T11:45:40.625Z,4.37
2018-12-06T11:48:08.041Z,3.10
2018-12-06T11:50:35.868Z,4.00
2018-12-06T11:53:03.663Z,4.55
2018-12-06T11:55:31.325Z,3.42
2018-12-06T11:57:58.637Z,3.70
2018-12-06T12:00:26.283Z,3.20
2018-12-06T12:02:53.641Z,5.75
2018-12-06T12:05:22.039Z,3.95
2018-12-06T12:07:49.471Z,4.60
2018-12-06T12:10:16.888Z,4.70
2018-12-06T12:12:45.040Z,7.68
2018-12-06T12:15:12.432Z,4.87
2018-12-06T12:17:39.930Z,10.70
2018-12-06T12:20:07.402Z,3.97
2018-12-06T12:22:34.819Z,4.40
2018-12-06T12:25:02.243Z,5.93
2018-12-06T12:27:29.671Z,3.67
2018-12-06T12:29:57.204Z,7.60
2018-12-06T12:32:24.607Z,6.07
2018-12-06T12:34:52.149Z,4.90
2018-12-06T12:37:19.570Z,5.10
2018-12-06T12:39:47.026Z,5.95
2018-12-06T12:42:14.680Z,3.85
2018-12-06T12:44:42.086Z,4.43
2018-12-06T12:47:09.809Z,3.50
2018-12-06T12:49:37.213Z,3.87
2018-12-06T12:52:04.772Z,12.77
2018-12-06T12:54:33.200Z,10.25
2018-12-06T12:57:00.628Z,5.05
2018-12-06T12:59:28.059Z,7.62
2018-12-06T13:01:55.468Z,4.15
2018-12-06T13:04:22.876Z,4.75
2018-12-06T13:06:50.315Z,4.22
2018-12-06T13:09:17.758Z,4.90
2018-12-06T13:11:45.770Z,3.60
2018-12-06T13:14:13.225Z,8.00
2018-12-06T13:16:40.622Z,7.75
2018-12-06T13:19:08.035Z,5.65
2018-12-06T13:21:35.539Z,3.87
2018-12-06T13:24:02.940Z,3.62
2018-12-06T13:26:30.392Z,4.78
2018-12-06T13:28:57.820Z,3.87
2018-12-06T13:31:25.299Z,11.60
2018-12-06T13:33:52.745Z,4.75
2018-12-06T13:36:20.189Z,5.30
2018-12-06T13:38:47.622Z,3.95
2018-12-06T13:41:15.074Z,5.00
2018-12-06T13:43:42.578Z,3.55
2018-12-06T13:46:10.030Z,3.67
2018-12-06T13:48:37.403Z,6.15
2018-12-06T13:51:04.843Z,3.85
2018-12-06T13:53:32.904Z,4.00
2018-12-06T13:56:00.303Z,4.55
2018-12-06T13:58:27.720Z,4.28
2018-12-06T14:00:55.520Z,4.55
2018-12-06T14:03:23.714Z,3.80
2018-12-06T14:05:51.159Z,4.00
2018-12-06T14:08:18.709Z,5.47
2018-12-06T14:10:46.122Z,4.20
2018-12-06T14:13:13.510Z,4.75
2018-12-06T14:15:40.963Z,5.20
2018-12-06T14:18:08.453Z,4.28
2018-12-06T14:20:35.875Z,5.62
2018-12-06T14:23:03.284Z,6.65
2018-12-06T14:25:30.697Z,4.50
2018-12-06T14:27:58.117Z,8.30
2018-12-06T14:30:25.679Z,5.35
2018-12-06T14:32:53.109Z,4.35
2018-12-06T14:35:20.511Z,3.83
2018-12-06T14:37:47.924Z,4.37
2018-12-06T14:40:15.406Z,7.78
2018-12-06T14:42:43.810Z,6.35
2018-12-06T14:45:11.511Z,4.03
2018-12-06T14:47:38.944Z,6.40
2018-12-06T14:50:06.429Z,5.57
2018-12-06T14:52:34.870Z,5.55
2018-12-06T14:55:02.474Z,7.68
2018-12-06T14:57:29.952Z,6.37
2018-12-06T14:59:57.651Z,6.05
2018-12-06T15:02:25.531Z,4.90
2018-12-06T15:04:52.958Z,3.53
2018-12-06T15:07:20.795Z,5.35
2018-12-06T15:09:48.525Z,5.20
2018-12-06T15:12:15.932Z,6.28
2018-12-06T15:14:43.366Z,4.62
2018-12-06T15:17:11.810Z,4.43
2018-12-06T15:19:40.135Z,9.45
2018-12-06T15:22:07.546Z,3.47
2018-12-06T15:24:35.002Z,6.07
2018-12-06T15:27:02.415Z,17.75
2018-12-06T15:29:29.807Z,8.90
2018-12-06T15:31:57.345Z,6.75
2018-12-06T15:34:24.755Z,5.30
2018-12-06T15:36:52.192Z,4.97
2018-12-06T15:39:20.000Z,4.55
2018-12-06T15:41:47.501Z,5.40
2018-12-06T15:44:14.966Z,3.87
2018-12-06T15:46:42.441Z,6.47
2018-12-06T15:49:09.936Z,4.20
2018-12-06T15:51:37.565Z,5.25
2018-12-06T15:54:05.136Z,6.22
2018-12-06T15:56:32.555Z,3.95
2018-12-06T15:59:00.076Z,5.82
2018-12-06T16:01:27.516Z,5.68
2018-12-06T16:03:54.927Z,6.50
2018-12-06T16:06:22.357Z,3.95
2018-12-06T16:08:50.242Z,5.07
2018-12-06T16:11:17.684Z,4.15
2018-12-06T16:13:45.163Z,4.47
2018-12-06T16:16:12.683Z,5.62
2018-12-06T16:18:40.341Z,6.22
2018-12-06T16:21:08.042Z,14.00
2018-12-06T16:23:36.710Z,4.85
2018-12-06T16:26:04.140Z,5.25
2018-12-06T16:28:31.558Z,5.97
2018-12-06T16:30:58.977Z,3.12
2018-12-06T16:33:26.389Z,3.75
2018-12-06T16:35:53.806Z,3.85
2018-12-06T16:38:21.358Z,3.37
2018-12-06T16:40:48.759Z,4.35
2018-12-06T16:43:16.165Z,12.88
2018-12-06T16:45:43.776Z,6.50
2018-12-06T16:48:11.853Z,6.70
2018-12-06T16:50:39.386Z,6.50
2018-12-06T16:53:06.994Z,4.97
2018-12-06T16:55:34.403Z,3.65
2018-12-06T16:58:02.523Z,5.05
2018-12-06T17:00:30.041Z,5.15
2018-12-06T17:02:58.379Z,4.40
2018-12-06T17:05:25.875Z,4.95
2018-12-06T17:07:53.370Z,7.03
2018-12-06T17:10:20.783Z,17.80
2018-12-06T17:12:48.235Z,5.70
2018-12-06T17:15:16.501Z,7.30
2018-12-06T17:17:43.906Z,7.40
2018-12-06T17:20:11.379Z,4.65
2018-12-06T17:22:38.790Z,7.32
2018-12-06T17:25:06.212Z,6.30
2018-12-06T17:27:33.639Z,9.52
2018-12-06T17:30:01.134Z,5.87
2018-12-06T17:32:28.571Z,5.65
2018-12-06T17:34:56.146Z,4.28
2018-12-06T17:37:24.565Z,6.37
2018-12-06T17:39:51.982Z,4.93
2018-12-06T17:42:19.433Z,14.75
2018-12-06T17:44:46.852Z,8.13
2018-12-06T17:47:14.352Z,5.37
2018-12-06T17:49:41.753Z,5.35
2018-12-06T17:52:09.183Z,6.70
2018-12-06T17:54:36.823Z,5.15
2018-12-06T17:57:04.219Z,5.57
2018-12-06T17:59:31.698Z,7.57
2018-12-06T18:01:59.125Z,4.93
2018-12-06T18:04:26.597Z,7.57
2018-12-06T18:06:54.031Z,5.50
2018-12-06T18:09:21.589Z,7.15
2018-12-06T18:11:49.166Z,7.93
2018-12-06T18:14:18.907Z,6.45
2018-12-06T18:16:47.690Z,9.75
2018-12-06T18:19:15.119Z,7.90
2018-12-06T18:21:42.560Z,7.00
2018-12-06T18:24:10.024Z,5.95
2018-12-06T18:26:37.487Z,6.50
2018-12-06T18:29:05.130Z,10.23
2018-12-06T18:31:32.533Z,8.43
2018-12-06T18:33:59.936Z,8.23
2018-12-06T18:36:27.342Z,9.20
2018-12-06T18:38:54.821Z,9.85
2018-12-06T18:41:22.859Z,9.10
2018-12-06T18:43:50.262Z,8.23
2018-12-06T18:46:18.562Z,5.57
2018-12-06T18:48:45.979Z,9.63
2018-12-06T18:51:13.393Z,13.30
2018-12-06T18:53:40.811Z,10.23
2018-12-06T18:56:08.318Z,10.18
2018-12-06T18:58:36.486Z,8.60
2018-12-06T19:01:03.909Z,13.15
2018-12-06T19:03:31.360Z,7.30
2018-12-06T19:05:58.765Z,9.93
2018-12-06T19:08:26.200Z,20.92
2018-12-06T19:10:53.836Z,9.45
2018-12-06T19:13:21.324Z,6.30
2018-12-06T19:15:48.996Z,7.70
2018-12-06T19:18:16.393Z,6.68
2018-12-06T19:20:43.941Z,8.30
2018-12-06T19:23:11.971Z,6.40
2018-12-06T19:25:39.473Z,9.05
2018-12-06T19:28:06.904Z,7.55
2018-12-06T19:30:37.249Z,7.57
2018-12-06T19:33:03.417Z,9.70
2018-12-06T19:35:30.672Z,6.05
2018-12-06T19:37:58.112Z,11.90
2018-12-06T19:40:25.562Z,10.32
2018-12-06T19:42:53.096Z,7.78
2018-12-06T19:45:20.488Z,8.25
2018-12-06T19:47:48.349Z,6.57
2018-12-06T19:50:16.046Z,6.47
2018-12-06T19:52:43.531Z,7.60
2018-12-06T19:55:10.894Z,10.18
2018-12-06T19:57:38.315Z,11.60
2018-12-06T20:00:05.727Z,11.10
2018-12-06T20:02:33.211Z,14.93
2018-12-06T20:05:00.629Z,8.32
2018-12-06T20:07:28.036Z,8.57
2018-12-06T20:09:55.467Z,9.07
2018-12-06T20:12:23.036Z,8.95
2018-12-06T20:14:50.452Z,10.00
2018-12-06T20:17:18.611Z,8.63
2018-12-06T20:19:46.207Z,10.65
2018-12-06T20:22:13.649Z,10.20
2018-12-06T20:24:41.192Z,7.28
2018-12-06T20:27:08.609Z,10.38
2018-12-06T20:29:36.656Z,14.95
2018-12-06T20:32:04.074Z,10.65
2018-12-06T20:34:31.635Z,11.20
2018-12-06T20:36:59.524Z,20.20
2018-12-06T20:39:26.947Z,9.65
2018-12-06T20:41:54.364Z,13.38
2018-12-06T20:44:21.770Z,12.85
2018-12-06T20:46:49.399Z,10.45
2018-12-06T20:49:16.912Z,10.32
2018-12-06T20:51:44.344Z,7.90
2018-12-06T20:54:11.772Z,11.00
2018-12-06T20:56:39.219Z,15.43
2018-12-06T20:59:06.620Z,11.77
2018-12-06T21:01:34.129Z,11.07
2018-12-06T21:04:01.569Z,16.80
2018-12-06T21:06:28.977Z,14.43
2018-12-06T21:08:56.392Z,12.18
2018-12-06T21:11:23.984Z,10.75
2018-12-06T21:13:51.547Z,10.65
2018-12-06T21:16:19.397Z,8.90
2018-12-06T21:18:46.836Z,12.13
2018-12-06T21:21:14.413Z,13.52
2018-12-06T21:23:42.458Z,11.32
2018-12-06T21:26:10.781Z,10.57
2018-12-06T21:28:39.280Z,12.25
2018-12-06T21:31:06.707Z,11.65
2018-12-06T21:33:34.125Z,16.67
2018-12-06T21:36:02.154Z,15.02
2018-12-06T21:38:29.561Z,11.10
2018-12-06T21:40:57.031Z,16.20
2018-12-06T21:43:24.427Z,9.30
2018-12-06T21:45:51.997Z,12.55
2018-12-06T21:48:19.444Z,7.70
2018-12-06T21:50:46.900Z,9.00
2018-12-06T21:53:14.318Z,9.60
2018-12-06T21:55:41.829Z,12.73
2018-12-06T21:58:09.354Z,12.75
2018-12-06T22:00:37.941Z,9.95
2018-12-06T22:03:05.356Z,11.23
2018-12-06T22:05:33.131Z,12.90
2018-12-06T22:08:00.615Z,9.93
2018-12-06T22:10:28.037Z,9.02
2018-12-06T22:12:56.223Z,12.13
2018-12-06T22:15:23.631Z,9.73
2018-12-06T22:17:51.044Z,6.87
2018-12-06T22:20:18.510Z,10.13
2018-12-06T22:22:46.000Z,7.22
2018-12-06T22:25:13.416Z,9.90
2018-12-06T22:27:40.903Z,8.57
2018-12-06T22:30:08.319Z,9.60
2018-12-06T22:32:35.751Z,8.38
2018-12-06T22:35:03.845Z,11.15
2018-12-06T22:37:31.315Z,8.60
2018-12-06T22:39:58.800Z,11.00
2018-12-06T22:42:27.334Z,12.57
2018-12-06T22:44:54.724Z,8.25
2018-12-06T22:47:22.166Z,33.85
2018-12-06T22:49:49.604Z,8.93
2018-12-06T22:52:17.056Z,10.35
2018-12-06T22:54:44.469Z,10.05
2018-12-06T22:57:11.888Z,9.18
2018-12-06T22:59:39.291Z,7.72
2018-12-06T23:02:06.890Z,10.88
2018-12-06T23:04:36.741Z,14.60
2018-12-06T23:07:05.814Z,8.77
2018-12-06T23:09:31.653Z,10.65
2018-12-06T23:11:59.077Z,7.40
2018-12-06T23:14:27.232Z,9.18
2018-12-06T23:16:54.648Z,6.65
2018-12-06T23:19:22.056Z,6.70
2018-12-06T23:21:49.505Z,8.45
2018-12-06T23:24:16.883Z,9.10
2018-12-06T23:26:44.314Z,6.43
2018-12-06T23:29:11.965Z,10.48
2018-12-06T23:31:39.360Z,6.12
2018-12-06T23:34:06.794Z,10.18
2018-12-06T23:36:35.017Z,9.70
2018-12-06T23:39:02.452Z,6.32
2018-12-06T23:41:30.001Z,11.02
2018-12-06T23:43:57.447Z,7.47
2018-12-06T23:46:24.918Z,8.38
2018-12-06T23:48:53.194Z,7.15
2018-12-06T23:51:35.183Z,5.37
2018-12-06T23:54:02.606Z,8.23
2018-12-06T23:56:30.324Z,8.23
2018-12-06T23:58:57.739Z,5.87
